sensor_id;sensor_type;location;lat;lon;timestamp;temperature;humidity
45435;DHT22;31183;47.404;8.500;2023-06-14T00:00:41;19.50;52.00
45435;DHT22;31183;47.404;8.500;2023-06-14T00:03:10;19.40;52.20
45435;DHT22;31183;47.404;8.500;2023-06-14T00:05:38;19.40;52.90
45435;DHT22;31183;47.404;8.500;2023-06-14T00:08:09;19.30;53.00
45435;DHT22;31183;47.404;8.500;2023-06-14T00:10:36;19.30;53.00
45435;DHT22;31183;47.404;8.500;2023-06-14T00:13:03;19.40;52.90
45435;DHT22;31183;47.404;8.500;2023-06-14T00:15:31;19.30;53.10
45435;DHT22;31183;47.404;8.500;2023-06-14T00:17:58;19.20;53.10
45435;DHT22;31183;47.404;8.500;2023-06-14T00:20:29;19.20;53.00
45435;DHT22;31183;47.404;8.500;2023-06-14T00:22:57;19.10;52.90
45435;DHT22;31183;47.404;8.500;2023-06-14T00:25:24;19.10;52.80
45435;DHT22;31183;47.404;8.500;2023-06-14T00:27:56;19.20;52.70
45435;DHT22;31183;47.404;8.500;2023-06-14T00:30:24;19.10;52.70
45435;DHT22;31183;47.404;8.500;2023-06-14T00:32:51;19.10;52.80
45435;DHT22;31183;47.404;8.500;2023-06-14T00:35:18;19.00;52.70
45435;DHT22;31183;47.404;8.500;2023-06-14T00:37:45;19.00;52.80
45435;DHT22;31183;47.404;8.500;2023-06-14T00:40:11;19.00;52.70
45435;DHT22;31183;47.404;8.500;2023-06-14T00:42:39;19.00;52.80
45435;DHT22;31183;47.404;8.500;2023-06-14T00:45:06;19.10;52.80
45435;DHT22;31183;47.404;8.500;2023-06-14T00:47:33;19.00;52.80
45435;DHT22;31183;47.404;8.500;2023-06-14T00:50:01;19.00;53.00
45435;DHT22;31183;47.404;8.500;2023-06-14T00:52:28;19.00;53.10
45435;DHT22;31183;47.404;8.500;2023-06-14T00:54:55;19.00;53.30
45435;DHT22;31183;47.404;8.500;2023-06-14T00:57:22;19.00;53.20
45435;DHT22;31183;47.404;8.500;2023-06-14T00:59:50;19.00;53.30
45435;DHT22;31183;47.404;8.500;2023-06-14T01:02:17;18.90;53.40
45435;DHT22;31183;47.404;8.500;2023-06-14T01:04:48;18.90;53.50
45435;DHT22;31183;47.404;8.500;2023-06-14T01:07:31;18.90;53.60
45435;DHT22;31183;47.404;8.500;2023-06-14T01:10:20;18.80;53.50
45435;DHT22;31183;47.404;8.500;2023-06-14T01:12:51;18.70;53.30
45435;DHT22;31183;47.404;8.500;2023-06-14T01:15:19;18.70;53.50
45435;DHT22;31183;47.404;8.500;2023-06-14T01:17:49;18.60;53.30
45435;DHT22;31183;47.404;8.500;2023-06-14T01:20:20;18.50;53.20
45435;DHT22;31183;47.404;8.500;2023-06-14T01:22:51;18.50;53.40
45435;DHT22;31183;47.404;8.500;2023-06-14T01:25:20;18.40;53.50
45435;DHT22;31183;47.404;8.500;2023-06-14T01:27:52;18.50;53.30
45435;DHT22;31183;47.404;8.500;2023-06-14T01:30:20;18.50;53.10
45435;DHT22;31183;47.404;8.500;2023-06-14T01:32:48;18.30;53.30
45435;DHT22;31183;47.404;8.500;2023-06-14T01:35:16;18.40;53.30
45435;DHT22;31183;47.404;8.500;2023-06-14T01:37:45;18.40;53.20
45435;DHT22;31183;47.404;8.500;2023-06-14T01:40:15;18.40;53.00
45435;DHT22;31183;47.404;8.500;2023-06-14T01:42:43;18.30;52.90
45435;DHT22;31183;47.404;8.500;2023-06-14T01:45:12;18.40;53.20
45435;DHT22;31183;47.404;8.500;2023-06-14T01:47:40;18.30;52.90
45435;DHT22;31183;47.404;8.500;2023-06-14T01:50:07;18.30;53.00
45435;DHT22;31183;47.404;8.500;2023-06-14T01:52:34;18.30;53.30
45435;DHT22;31183;47.404;8.500;2023-06-14T01:55:01;18.30;53.00
45435;DHT22;31183;47.404;8.500;2023-06-14T01:57:28;18.30;52.90
45435;DHT22;31183;47.404;8.500;2023-06-14T01:59:55;18.30;53.00
45435;DHT22;31183;47.404;8.500;2023-06-14T02:02:22;18.20;52.80
45435;DHT22;31183;47.404;8.500;2023-06-14T02:04:49;18.30;53.00
45435;DHT22;31183;47.404;8.500;2023-06-14T02:07:16;18.20;53.10
45435;DHT22;31183;47.404;8.500;2023-06-14T02:09:42;18.20;53.20
45435;DHT22;31183;47.404;8.500;2023-06-14T02:12:09;18.10;52.80
45435;DHT22;31183;47.404;8.500;2023-06-14T02:14:37;18.10;53.10
45435;DHT22;31183;47.404;8.500;2023-06-14T02:17:04;18.10;52.90
45435;DHT22;31183;47.404;8.500;2023-06-14T02:19:32;18.00;53.10
45435;DHT22;31183;47.404;8.500;2023-06-14T02:21:59;18.00;53.20
45435;DHT22;31183;47.404;8.500;2023-06-14T02:24:26;18.00;53.40
45435;DHT22;31183;47.404;8.500;2023-06-14T02:26:53;18.00;53.20
45435;DHT22;31183;47.404;8.500;2023-06-14T02:29:20;17.90;53.40
45435;DHT22;31183;47.404;8.500;2023-06-14T02:31:47;17.80;53.70
45435;DHT22;31183;47.404;8.500;2023-06-14T02:34:15;17.70;53.70
45435;DHT22;31183;47.404;8.500;2023-06-14T02:36:44;17.90;53.90
45435;DHT22;31183;47.404;8.500;2023-06-14T02:39:11;17.90;53.70
45435;DHT22;31183;47.404;8.500;2023-06-14T02:41:38;17.90;53.50
45435;DHT22;31183;47.404;8.500;2023-06-14T02:44:06;17.90;53.90
45435;DHT22;31183;47.404;8.500;2023-06-14T02:46:32;17.90;53.70
45435;DHT22;31183;47.404;8.500;2023-06-14T02:48:59;17.80;54.00
45435;DHT22;31183;47.404;8.500;2023-06-14T02:51:26;17.80;54.20
45435;DHT22;31183;47.404;8.500;2023-06-14T02:53:53;17.90;54.10
45435;DHT22;31183;47.404;8.500;2023-06-14T02:56:20;17.90;54.10
45435;DHT22;31183;47.404;8.500;2023-06-14T02:58:46;17.90;54.00
45435;DHT22;31183;47.404;8.500;2023-06-14T03:01:15;17.80;54.20
45435;DHT22;31183;47.404;8.500;2023-06-14T03:03:42;17.80;54.20
45435;DHT22;31183;47.404;8.500;2023-06-14T03:06:09;17.80;54.10
45435;DHT22;31183;47.404;8.500;2023-06-14T03:08:40;17.60;54.30
45435;DHT22;31183;47.404;8.500;2023-06-14T03:11:08;17.60;54.60
45435;DHT22;31183;47.404;8.500;2023-06-14T03:13:37;17.50;54.70
45435;DHT22;31183;47.404;8.500;2023-06-14T03:16:05;17.50;54.90
45435;DHT22;31183;47.404;8.500;2023-06-14T03:18:32;17.50;55.00
45435;DHT22;31183;47.404;8.500;2023-06-14T03:21:02;17.60;55.00
45435;DHT22;31183;47.404;8.500;2023-06-14T03:23:29;17.60;54.80
45435;DHT22;31183;47.404;8.500;2023-06-14T03:25:56;17.60;55.10
45435;DHT22;31183;47.404;8.500;2023-06-14T03:28:23;17.60;55.20
45435;DHT22;31183;47.404;8.500;2023-06-14T03:30:49;17.60;55.40
45435;DHT22;31183;47.404;8.500;2023-06-14T03:33:16;17.50;55.60
45435;DHT22;31183;47.404;8.500;2023-06-14T03:35:43;17.50;55.60
45435;DHT22;31183;47.404;8.500;2023-06-14T03:38:10;17.50;55.90
45435;DHT22;31183;47.404;8.500;2023-06-14T03:40:37;17.40;55.90
45435;DHT22;31183;47.404;8.500;2023-06-14T03:43:04;17.60;55.80
45435;DHT22;31183;47.404;8.500;2023-06-14T03:45:30;17.70;55.70
45435;DHT22;31183;47.404;8.500;2023-06-14T03:47:57;17.70;55.50
45435;DHT22;31183;47.404;8.500;2023-06-14T03:50:24;17.80;55.40
45435;DHT22;31183;47.404;8.500;2023-06-14T03:52:51;17.80;55.40
45435;DHT22;31183;47.404;8.500;2023-06-14T03:55:19;17.80;55.60
45435;DHT22;31183;47.404;8.500;2023-06-14T03:57:48;17.90;55.80
45435;DHT22;31183;47.404;8.500;2023-06-14T04:00:15;17.90;55.70
45435;DHT22;31183;47.404;8.500;2023-06-14T04:02:42;17.90;55.60
45435;DHT22;31183;47.404;8.500;2023-06-14T04:05:10;17.90;55.60
45435;DHT22;31183;47.404;8.500;2023-06-14T04:07:37;17.90;56.30
45435;DHT22;31183;47.404;8.500;2023-06-14T04:10:07;17.90;57.90
45435;DHT22;31183;47.404;8.500;2023-06-14T04:12:34;17.90;58.10
45435;DHT22;31183;47.404;8.500;2023-06-14T04:15:01;17.90;58.90
45435;DHT22;31183;47.404;8.500;2023-06-14T04:17:47;17.80;59.00
45435;DHT22;31183;47.404;8.500;2023-06-14T04:20:13;17.80;59.20
45435;DHT22;31183;47.404;8.500;2023-06-14T04:22:40;17.80;59.00
45435;DHT22;31183;47.404;8.500;2023-06-14T04:25:07;17.80;58.80
45435;DHT22;31183;47.404;8.500;2023-06-14T04:27:35;17.80;59.60
45435;DHT22;31183;47.404;8.500;2023-06-14T04:30:03;17.80;59.90
45435;DHT22;31183;47.404;8.500;2023-06-14T04:32:30;17.90;59.50
45435;DHT22;31183;47.404;8.500;2023-06-14T04:35:00;17.80;59.80
45435;DHT22;31183;47.404;8.500;2023-06-14T04:37:30;17.90;59.60
45435;DHT22;31183;47.404;8.500;2023-06-14T04:39:58;17.90;59.30
45435;DHT22;31183;47.404;8.500;2023-06-14T04:42:25;17.90;59.20
45435;DHT22;31183;47.404;8.500;2023-06-14T04:44:57;17.60;58.60
45435;DHT22;31183;47.404;8.500;2023-06-14T04:47:24;17.60;59.40
45435;DHT22;31183;47.404;8.500;2023-06-14T04:49:57;17.60;59.10
45435;DHT22;31183;47.404;8.500;2023-06-14T04:52:24;17.60;59.60
45435;DHT22;31183;47.404;8.500;2023-06-14T04:54:53;17.60;59.60
45435;DHT22;31183;47.404;8.500;2023-06-14T04:57:20;17.30;60.90
45435;DHT22;31183;47.404;8.500;2023-06-14T04:59:48;17.10;60.30
45435;DHT22;31183;47.404;8.500;2023-06-14T05:02:18;17.00;61.70
45435;DHT22;31183;47.404;8.500;2023-06-14T05:04:44;16.90;61.10
45435;DHT22;31183;47.404;8.500;2023-06-14T05:07:11;16.90;61.30
45435;DHT22;31183;47.404;8.500;2023-06-14T05:09:38;17.20;60.60
45435;DHT22;31183;47.404;8.500;2023-06-14T05:12:05;17.60;59.40
45435;DHT22;31183;47.404;8.500;2023-06-14T05:14:34;17.60;57.90
45435;DHT22;31183;47.404;8.500;2023-06-14T05:17:01;17.50;58.30
45435;DHT22;31183;47.404;8.500;2023-06-14T05:19:28;17.30;59.10
45435;DHT22;31183;47.404;8.500;2023-06-14T05:21:55;17.40;59.90
45435;DHT22;31183;47.404;8.500;2023-06-14T05:24:22;17.80;59.20
45435;DHT22;31183;47.404;8.500;2023-06-14T05:26:49;18.20;58.00
45435;DHT22;31183;47.404;8.500;2023-06-14T05:29:15;18.40;57.60
45435;DHT22;31183;47.404;8.500;2023-06-14T05:31:42;18.60;57.10
45435;DHT22;31183;47.404;8.500;2023-06-14T05:34:08;18.70;56.30
45435;DHT22;31183;47.404;8.500;2023-06-14T05:36:35;19.00;56.50
45435;DHT22;31183;47.404;8.500;2023-06-14T05:39:03;19.50;56.90
45435;DHT22;31183;47.404;8.500;2023-06-14T05:41:31;19.60;56.40
45435;DHT22;31183;47.404;8.500;2023-06-14T05:43:58;19.90;55.20
45435;DHT22;31183;47.404;8.500;2023-06-14T05:46:26;20.20;55.40
45435;DHT22;31183;47.404;8.500;2023-06-14T05:48:53;20.60;55.10
45435;DHT22;31183;47.404;8.500;2023-06-14T05:51:21;20.80;52.80
45435;DHT22;31183;47.404;8.500;2023-06-14T05:53:48;20.60;51.90
45435;DHT22;31183;47.404;8.500;2023-06-14T05:56:15;20.40;52.10
45435;DHT22;31183;47.404;8.500;2023-06-14T05:58:45;20.40;52.90
45435;DHT22;31183;47.404;8.500;2023-06-14T06:01:12;20.60;52.90
45435;DHT22;31183;47.404;8.500;2023-06-14T06:03:39;20.80;52.80
45435;DHT22;31183;47.404;8.500;2023-06-14T06:06:06;21.20;52.50
45435;DHT22;31183;47.404;8.500;2023-06-14T06:08:34;21.60;52.20
45435;DHT22;31183;47.404;8.500;2023-06-14T06:11:01;21.90;51.80
45435;DHT22;31183;47.404;8.500;2023-06-14T06:13:28;22.20;50.60
45435;DHT22;31183;47.404;8.500;2023-06-14T06:15:55;22.30;50.50
45435;DHT22;31183;47.404;8.500;2023-06-14T06:18:22;22.50;50.30
45435;DHT22;31183;47.404;8.500;2023-06-14T06:20:49;22.70;50.00
45435;DHT22;31183;47.404;8.500;2023-06-14T06:23:16;22.80;49.90
45435;DHT22;31183;47.404;8.500;2023-06-14T06:25:43;23.10;50.00
45435;DHT22;31183;47.404;8.500;2023-06-14T06:28:09;23.30;49.90
45435;DHT22;31183;47.404;8.500;2023-06-14T06:30:37;23.30;47.90
45435;DHT22;31183;47.404;8.500;2023-06-14T06:33:04;23.20;48.50
45435;DHT22;31183;47.404;8.500;2023-06-14T06:35:31;23.40;48.50
45435;DHT22;31183;47.404;8.500;2023-06-14T06:37:59;23.70;48.40
45435;DHT22;31183;47.404;8.500;2023-06-14T06:40:27;23.70;48.10
45435;DHT22;31183;47.404;8.500;2023-06-14T06:42:53;23.80;48.40
45435;DHT22;31183;47.404;8.500;2023-06-14T06:45:21;23.80;48.30
45435;DHT22;31183;47.404;8.500;2023-06-14T06:47:51;23.90;48.00
45435;DHT22;31183;47.404;8.500;2023-06-14T06:50:18;24.10;47.70
45435;DHT22;31183;47.404;8.500;2023-06-14T06:52:46;24.20;47.80
45435;DHT22;31183;47.404;8.500;2023-06-14T06:55:13;24.30;46.80
45435;DHT22;31183;47.404;8.500;2023-06-14T06:57:40;24.40;46.40
45435;DHT22;31183;47.404;8.500;2023-06-14T07:00:08;24.50;47.10
45435;DHT22;31183;47.404;8.500;2023-06-14T07:02:36;24.60;47.50
45435;DHT22;31183;47.404;8.500;2023-06-14T07:05:03;24.70;47.10
45435;DHT22;31183;47.404;8.500;2023-06-14T07:07:30;24.80;46.80
45435;DHT22;31183;47.404;8.500;2023-06-14T07:09:57;24.90;46.70
45435;DHT22;31183;47.404;8.500;2023-06-14T07:12:24;25.00;46.30
45435;DHT22;31183;47.404;8.500;2023-06-14T07:14:50;24.90;45.70
45435;DHT22;31183;47.404;8.500;2023-06-14T07:17:17;24.90;46.00
45435;DHT22;31183;47.404;8.500;2023-06-14T07:19:43;25.00;46.40
45435;DHT22;31183;47.404;8.500;2023-06-14T07:22:10;25.00;46.30
45435;DHT22;31183;47.404;8.500;2023-06-14T07:24:37;25.10;45.80
45435;DHT22;31183;47.404;8.500;2023-06-14T07:27:03;25.10;45.70
45435;DHT22;31183;47.404;8.500;2023-06-14T07:29:30;25.20;46.10
45435;DHT22;31183;47.404;8.500;2023-06-14T07:31:57;25.20;46.30
45435;DHT22;31183;47.404;8.500;2023-06-14T07:34:23;25.30;45.90
45435;DHT22;31183;47.404;8.500;2023-06-14T07:36:50;25.40;45.50
45435;DHT22;31183;47.404;8.500;2023-06-14T07:39:17;25.30;45.40
45435;DHT22;31183;47.404;8.500;2023-06-14T07:41:44;25.30;45.30
45435;DHT22;31183;47.404;8.500;2023-06-14T07:44:11;25.50;46.40
45435;DHT22;31183;47.404;8.500;2023-06-14T07:46:38;25.60;46.50
45435;DHT22;31183;47.404;8.500;2023-06-14T07:49:05;25.60;46.10
45435;DHT22;31183;47.404;8.500;2023-06-14T07:51:32;25.70;45.90
45435;DHT22;31183;47.404;8.500;2023-06-14T07:54:03;25.70;45.40
45435;DHT22;31183;47.404;8.500;2023-06-14T07:56:29;25.80;44.70
45435;DHT22;31183;47.404;8.500;2023-06-14T07:58:56;25.90;45.30
45435;DHT22;31183;47.404;8.500;2023-06-14T08:01:23;25.90;44.10
45435;DHT22;31183;47.404;8.500;2023-06-14T08:03:51;25.90;44.90
45435;DHT22;31183;47.404;8.500;2023-06-14T08:06:18;25.90;44.50
45435;DHT22;31183;47.404;8.500;2023-06-14T08:08:45;26.00;45.40
45435;DHT22;31183;47.404;8.500;2023-06-14T08:11:12;26.10;45.70
45435;DHT22;31183;47.404;8.500;2023-06-14T08:13:38;26.10;45.00
45435;DHT22;31183;47.404;8.500;2023-06-14T08:16:05;26.20;45.40
45435;DHT22;31183;47.404;8.500;2023-06-14T08:18:32;26.50;45.50
45435;DHT22;31183;47.404;8.500;2023-06-14T08:20:58;26.50;43.80
45435;DHT22;31183;47.404;8.500;2023-06-14T08:23:25;26.60;44.60
45435;DHT22;31183;47.404;8.500;2023-06-14T08:25:52;26.70;44.20
45435;DHT22;31183;47.404;8.500;2023-06-14T08:28:20;26.50;44.00
45435;DHT22;31183;47.404;8.500;2023-06-14T08:30:47;26.60;44.10
45435;DHT22;31183;47.404;8.500;2023-06-14T08:33:14;26.80;44.30
45435;DHT22;31183;47.404;8.500;2023-06-14T08:35:43;26.80;43.40
45435;DHT22;31183;47.404;8.500;2023-06-14T08:38:10;26.80;43.00
45435;DHT22;31183;47.404;8.500;2023-06-14T08:40:40;26.90;43.10
45435;DHT22;31183;47.404;8.500;2023-06-14T08:43:08;26.90;43.00
45435;DHT22;31183;47.404;8.500;2023-06-14T08:45:35;27.00;43.80
45435;DHT22;31183;47.404;8.500;2023-06-14T08:48:02;26.90;42.60
45435;DHT22;31183;47.404;8.500;2023-06-14T08:50:29;27.10;42.90
45435;DHT22;31183;47.404;8.500;2023-06-14T08:53:01;27.00;41.50
45435;DHT22;31183;47.404;8.500;2023-06-14T08:55:31;26.90;41.50
45435;DHT22;31183;47.404;8.500;2023-06-14T08:58:03;26.90;41.60
45435;DHT22;31183;47.404;8.500;2023-06-14T09:00:31;27.10;41.90
45435;DHT22;31183;47.404;8.500;2023-06-14T09:03:00;27.30;41.30
45435;DHT22;31183;47.404;8.500;2023-06-14T09:05:27;27.30;40.80
45435;DHT22;31183;47.404;8.500;2023-06-14T09:07:55;27.20;40.40
45435;DHT22;31183;47.404;8.500;2023-06-14T09:10:23;27.20;40.20
45435;DHT22;31183;47.404;8.500;2023-06-14T09:12:52;27.20;40.50
45435;DHT22;31183;47.404;8.500;2023-06-14T09:15:19;27.10;40.20
45435;DHT22;31183;47.404;8.500;2023-06-14T09:17:47;27.00;41.40
45435;DHT22;31183;47.404;8.500;2023-06-14T09:20:14;27.10;41.70
45435;DHT22;31183;47.404;8.500;2023-06-14T09:22:45;27.10;41.00
45435;DHT22;31183;47.404;8.500;2023-06-14T09:25:12;27.20;40.50
45435;DHT22;31183;47.404;8.500;2023-06-14T09:28:01;27.00;39.80
45435;DHT22;31183;47.404;8.500;2023-06-14T09:30:28;26.80;39.70
45435;DHT22;31183;47.404;8.500;2023-06-14T09:32:55;26.70;40.10
45435;DHT22;31183;47.404;8.500;2023-06-14T09:35:26;26.50;40.60
45435;DHT22;31183;47.404;8.500;2023-06-14T09:37:56;26.40;41.50
45435;DHT22;31183;47.404;8.500;2023-06-14T09:40:23;26.10;40.90
45435;DHT22;31183;47.404;8.500;2023-06-14T09:42:50;25.80;41.80
45435;DHT22;31183;47.404;8.500;2023-06-14T09:45:17;25.50;41.40
45435;DHT22;31183;47.404;8.500;2023-06-14T09:47:49;25.30;42.00
45435;DHT22;31183;47.404;8.500;2023-06-14T09:50:32;25.30;42.40
45435;DHT22;31183;47.404;8.500;2023-06-14T09:53:03;25.20;43.00
45435;DHT22;31183;47.404;8.500;2023-06-14T09:55:34;25.00;42.60
45435;DHT22;31183;47.404;8.500;2023-06-14T09:58:06;24.90;43.00
45435;DHT22;31183;47.404;8.500;2023-06-14T10:00:34;24.80;43.10
45435;DHT22;31183;47.404;8.500;2023-06-14T10:03:07;24.70;43.30
45435;DHT22;31183;47.404;8.500;2023-06-14T10:05:36;24.60;42.90
45435;DHT22;31183;47.404;8.500;2023-06-14T10:08:07;24.60;43.40
45435;DHT22;31183;47.404;8.500;2023-06-14T10:10:34;24.50;44.00
45435;DHT22;31183;47.404;8.500;2023-06-14T10:13:01;24.50;44.00
45435;DHT22;31183;47.404;8.500;2023-06-14T10:15:33;24.50;44.10
45435;DHT22;31183;47.404;8.500;2023-06-14T10:18:31;24.40;43.20
45435;DHT22;31183;47.404;8.500;2023-06-14T10:23:50;24.40;43.80
45435;DHT22;31183;47.404;8.500;2023-06-14T10:26:23;24.30;42.70
45435;DHT22;31183;47.404;8.500;2023-06-14T10:29:01;24.20;42.80
45435;DHT22;31183;47.404;8.500;2023-06-14T10:31:43;24.10;43.40
45435;DHT22;31183;47.404;8.500;2023-06-14T10:34:11;24.00;42.50
45435;DHT22;31183;47.404;8.500;2023-06-14T10:36:42;24.00;43.20
45435;DHT22;31183;47.404;8.500;2023-06-14T10:39:14;24.00;43.60
45435;DHT22;31183;47.404;8.500;2023-06-14T10:41:42;23.90;42.70
45435;DHT22;31183;47.404;8.500;2023-06-14T10:46:52;23.90;44.10
45435;DHT22;31183;47.404;8.500;2023-06-14T10:49:19;23.90;44.80
45435;DHT22;31183;47.404;8.500;2023-06-14T10:51:50;24.10;44.50
45435;DHT22;31183;47.404;8.500;2023-06-14T10:54:21;24.00;42.40
45435;DHT22;31183;47.404;8.500;2023-06-14T10:56:49;24.00;43.00
45435;DHT22;31183;47.404;8.500;2023-06-14T10:59:19;23.90;42.80
45435;DHT22;31183;47.404;8.500;2023-06-14T11:04:49;23.80;43.40
45435;DHT22;31183;47.404;8.500;2023-06-14T11:10:44;24.00;43.20
45435;DHT22;31183;47.404;8.500;2023-06-14T11:13:16;23.90;42.80
45435;DHT22;31183;47.404;8.500;2023-06-14T11:15:45;23.90;42.90
45435;DHT22;31183;47.404;8.500;2023-06-14T11:18:14;23.90;43.30
45435;DHT22;31183;47.404;8.500;2023-06-14T11:20:46;23.80;44.20
45435;DHT22;31183;47.404;8.500;2023-06-14T11:23:13;23.80;43.30
45435;DHT22;31183;47.404;8.500;2023-06-14T11:25:39;23.70;43.00
45435;DHT22;31183;47.404;8.500;2023-06-14T11:28:06;23.70;43.00
45435;DHT22;31183;47.404;8.500;2023-06-14T11:30:33;23.60;43.40
45435;DHT22;31183;47.404;8.500;2023-06-14T11:32:59;23.50;43.30
45435;DHT22;31183;47.404;8.500;2023-06-14T11:35:26;23.50;43.40
45435;DHT22;31183;47.404;8.500;2023-06-14T11:37:57;23.60;44.10
45435;DHT22;31183;47.404;8.500;2023-06-14T11:40:25;23.60;45.00
45435;DHT22;31183;47.404;8.500;2023-06-14T11:42:59;23.70;44.80
45435;DHT22;31183;47.404;8.500;2023-06-14T11:45:27;23.70;43.80
45435;DHT22;31183;47.404;8.500;2023-06-14T11:47:58;23.60;42.80
45435;DHT22;31183;47.404;8.500;2023-06-14T11:50:26;23.50;43.20
45435;DHT22;31183;47.404;8.500;2023-06-14T11:52:57;23.50;43.80
45435;DHT22;31183;47.404;8.500;2023-06-14T11:55:26;23.50;44.20
45435;DHT22;31183;47.404;8.500;2023-06-14T11:57:56;23.60;44.30
45435;DHT22;31183;47.404;8.500;2023-06-14T12:00:26;23.70;44.30
45435;DHT22;31183;47.404;8.500;2023-06-14T12:02:54;23.60;44.20
45435;DHT22;31183;47.404;8.500;2023-06-14T12:05:24;23.60;45.30
45435;DHT22;31183;47.404;8.500;2023-06-14T12:07:57;23.70;45.50
45435;DHT22;31183;47.404;8.500;2023-06-14T12:10:25;23.60;44.40
45435;DHT22;31183;47.404;8.500;2023-06-14T12:12:57;23.50;44.70
45435;DHT22;31183;47.404;8.500;2023-06-14T12:15:27;23.60;45.60
45435;DHT22;31183;47.404;8.500;2023-06-14T12:17:55;23.60;44.80
45435;DHT22;31183;47.404;8.500;2023-06-14T12:20:22;23.70;44.80
45435;DHT22;31183;47.404;8.500;2023-06-14T12:22:54;23.70;45.10
45435;DHT22;31183;47.404;8.500;2023-06-14T12:25:33;23.70;44.10
45435;DHT22;31183;47.404;8.500;2023-06-14T12:28:09;23.70;43.90
45435;DHT22;31183;47.404;8.500;2023-06-14T12:30:37;23.70;45.00
45435;DHT22;31183;47.404;8.500;2023-06-14T12:33:05;23.70;45.10
45435;DHT22;31183;47.404;8.500;2023-06-14T12:35:32;23.70;45.40
45435;DHT22;31183;47.404;8.500;2023-06-14T12:37:59;23.80;45.40
45435;DHT22;31183;47.404;8.500;2023-06-14T12:40:26;23.90;45.10
45435;DHT22;31183;47.404;8.500;2023-06-14T12:42:53;23.90;44.70
45435;DHT22;31183;47.404;8.500;2023-06-14T12:45:20;23.90;44.60
45435;DHT22;31183;47.404;8.500;2023-06-14T12:47:46;23.80;43.80
45435;DHT22;31183;47.404;8.500;2023-06-14T12:50:13;23.70;43.60
45435;DHT22;31183;47.404;8.500;2023-06-14T12:52:41;23.70;44.60
45435;DHT22;31183;47.404;8.500;2023-06-14T12:55:07;23.70;44.80
45435;DHT22;31183;47.404;8.500;2023-06-14T12:57:34;23.70;44.70
45435;DHT22;31183;47.404;8.500;2023-06-14T13:00:04;23.80;44.50
45435;DHT22;31183;47.404;8.500;2023-06-14T13:02:31;23.80;42.80
45435;DHT22;31183;47.404;8.500;2023-06-14T13:04:59;23.70;42.50
45435;DHT22;31183;47.404;8.500;2023-06-14T13:07:26;23.70;44.00
45435;DHT22;31183;47.404;8.500;2023-06-14T13:09:53;23.80;43.10
45435;DHT22;31183;47.404;8.500;2023-06-14T13:12:20;23.70;43.40
45435;DHT22;31183;47.404;8.500;2023-06-14T13:14:46;23.70;43.70
45435;DHT22;31183;47.404;8.500;2023-06-14T13:17:13;23.70;43.20
45435;DHT22;31183;47.404;8.500;2023-06-14T13:19:40;23.70;43.30
45435;DHT22;31183;47.404;8.500;2023-06-14T13:22:08;23.70;42.90
45435;DHT22;31183;47.404;8.500;2023-06-14T13:24:35;23.70;43.70
45435;DHT22;31183;47.404;8.500;2023-06-14T13:27:02;23.70;43.50
45435;DHT22;31183;47.404;8.500;2023-06-14T13:29:29;23.70;44.40
45435;DHT22;31183;47.404;8.500;2023-06-14T13:31:57;23.70;44.30
45435;DHT22;31183;47.404;8.500;2023-06-14T13:34:24;23.70;42.80
45435;DHT22;31183;47.404;8.500;2023-06-14T13:36:51;23.70;43.30
45435;DHT22;31183;47.404;8.500;2023-06-14T13:39:17;23.70;43.60
45435;DHT22;31183;47.404;8.500;2023-06-14T13:41:44;23.70;43.60
45435;DHT22;31183;47.404;8.500;2023-06-14T13:44:11;23.70;43.80
45435;DHT22;31183;47.404;8.500;2023-06-14T13:46:42;23.70;43.30
45435;DHT22;31183;47.404;8.500;2023-06-14T13:49:09;23.70;43.20
45435;DHT22;31183;47.404;8.500;2023-06-14T13:51:37;23.70;43.40
45435;DHT22;31183;47.404;8.500;2023-06-14T13:54:04;23.70;43.60
45435;DHT22;31183;47.404;8.500;2023-06-14T13:56:31;23.70;44.30
45435;DHT22;31183;47.404;8.500;2023-06-14T13:58:57;23.60;44.00
45435;DHT22;31183;47.404;8.500;2023-06-14T14:01:24;23.60;44.10
45435;DHT22;31183;47.404;8.500;2023-06-14T14:03:53;23.60;44.50
45435;DHT22;31183;47.404;8.500;2023-06-14T14:06:19;23.70;44.90
45435;DHT22;31183;47.404;8.500;2023-06-14T14:08:46;23.70;44.60
45435;DHT22;31183;47.404;8.500;2023-06-14T14:11:13;23.70;44.00
45435;DHT22;31183;47.404;8.500;2023-06-14T14:13:42;23.70;44.00
45435;DHT22;31183;47.404;8.500;2023-06-14T14:16:09;23.70;44.20
45435;DHT22;31183;47.404;8.500;2023-06-14T14:18:37;23.60;42.90
45435;DHT22;31183;47.404;8.500;2023-06-14T14:21:05;23.60;42.90
45435;DHT22;31183;47.404;8.500;2023-06-14T14:23:32;23.60;42.70
45435;DHT22;31183;47.404;8.500;2023-06-14T14:25:59;23.60;43.50
45435;DHT22;31183;47.404;8.500;2023-06-14T14:28:30;23.60;43.60
45435;DHT22;31183;47.404;8.500;2023-06-14T14:30:57;23.70;43.80
45435;DHT22;31183;47.404;8.500;2023-06-14T14:33:24;23.80;43.90
45435;DHT22;31183;47.404;8.500;2023-06-14T14:35:51;23.90;44.10
45435;DHT22;31183;47.404;8.500;2023-06-14T14:38:17;23.90;44.20
45435;DHT22;31183;47.404;8.500;2023-06-14T14:40:44;24.00;44.40
45435;DHT22;31183;47.404;8.500;2023-06-14T14:43:11;23.90;45.10
45435;DHT22;31183;47.404;8.500;2023-06-14T14:45:38;23.90;45.70
45435;DHT22;31183;47.404;8.500;2023-06-14T14:48:05;24.00;45.60
45435;DHT22;31183;47.404;8.500;2023-06-14T14:50:32;23.90;45.00
45435;DHT22;31183;47.404;8.500;2023-06-14T14:53:00;23.90;44.80
45435;DHT22;31183;47.404;8.500;2023-06-14T14:55:27;23.90;45.20
45435;DHT22;31183;47.404;8.500;2023-06-14T14:57:53;23.90;45.20
45435;DHT22;31183;47.404;8.500;2023-06-14T15:00:20;23.90;44.40
45435;DHT22;31183;47.404;8.500;2023-06-14T15:02:47;23.90;43.60
45435;DHT22;31183;47.404;8.500;2023-06-14T15:05:14;23.90;44.60
45435;DHT22;31183;47.404;8.500;2023-06-14T15:07:41;23.90;45.40
45435;DHT22;31183;47.404;8.500;2023-06-14T15:10:08;23.90;45.30
45435;DHT22;31183;47.404;8.500;2023-06-14T15:12:35;23.90;44.60
45435;DHT22;31183;47.404;8.500;2023-06-14T15:15:02;23.80;44.40
45435;DHT22;31183;47.404;8.500;2023-06-14T15:17:29;23.90;44.80
45435;DHT22;31183;47.404;8.500;2023-06-14T15:19:57;23.90;45.50
45435;DHT22;31183;47.404;8.500;2023-06-14T15:22:23;23.90;45.50
45435;DHT22;31183;47.404;8.500;2023-06-14T15:24:50;23.90;44.70
45435;DHT22;31183;47.404;8.500;2023-06-14T15:27:17;23.80;44.50
45435;DHT22;31183;47.404;8.500;2023-06-14T15:29:44;23.80;44.80
45435;DHT22;31183;47.404;8.500;2023-06-14T15:32:12;23.80;44.90
45435;DHT22;31183;47.404;8.500;2023-06-14T15:34:39;23.80;44.90
45435;DHT22;31183;47.404;8.500;2023-06-14T15:37:06;23.80;45.10
45435;DHT22;31183;47.404;8.500;2023-06-14T15:39:33;23.70;45.40
45435;DHT22;31183;47.404;8.500;2023-06-14T15:42:00;23.80;45.30
45435;DHT22;31183;47.404;8.500;2023-06-14T15:44:27;23.70;45.30
45435;DHT22;31183;47.404;8.500;2023-06-14T15:46:53;23.70;45.50